createdAt,value
2017-09-20T00:08:16.269Z,0.00
2017-09-20T00:08:24.050Z,0.00
2017-09-20T00:08:32.021Z,0.00
2017-09-20T00:08:46.878Z,0.00
2017-09-20T00:08:55.908Z,0.00
2017-09-20T00:09:03.853Z,0.00
2017-09-20T00:09:11.998Z,0.00
2017-09-20T00:09:20.143Z,0.00
2017-09-20T00:09:28.276Z,0.00
2017-09-20T00:09:41.730Z,0.00
2017-09-20T00:10:00.469Z,0.00
2017-09-20T00:10:20.990Z,0.00
2017-09-20T00:10:43.149Z,0.00
2017-09-20T00:11:04.580Z,0.00
2017-09-20T00:11:21.197Z,0.00
2017-09-20T00:11:35.417Z,0.00
2017-09-20T00:11:45.495Z,0.00
2017-09-20T00:12:03.382Z,0.00
2017-09-20T00:12:17.516Z,0.00
2017-09-20T00:12:44.122Z,0.00
2017-09-20T00:13:00.454Z,0.00
2017-09-20T00:13:10.392Z,0.00
2017-09-20T00:13:19.955Z,0.00
2017-09-20T00:13:36.294Z,0.00
2017-09-20T00:13:47.328Z,0.00
2017-09-20T00:14:02.666Z,0.00
2017-09-20T00:14:14.825Z,0.00
2017-09-20T00:14:38.050Z,0.00
2017-09-20T00:14:48.117Z,0.00
2017-09-20T00:14:57.955Z,0.00
2017-09-20T00:15:11.280Z,0.00
2017-09-20T00:15:28.212Z,0.00
2017-09-20T00:15:37.453Z,0.00
2017-09-20T00:16:47.982Z,0.00
2017-09-20T00:17:18.591Z,0.00
2017-09-20T00:17:47.753Z,0.00
2017-09-20T00:52:27.301Z,0.00
2017-09-20T02:44:36.340Z,0.00
2017-09-20T03:39:09.873Z,0.00
2017-09-20T04:12:02.050Z,0.00
2017-09-20T04:12:29.341Z,0.00
2017-09-20T04:12:37.670Z,0.00
2017-09-20T04:12:52.625Z,0.00
2017-09-20T04:13:13.449Z,0.00
2017-09-20T04:13:34.497Z,0.00
2017-09-20T04:13:59.550Z,0.00
2017-09-20T04:22:21.173Z,0.00
2017-09-20T04:22:59.450Z,0.00
2017-09-20T04:23:34.494Z,0.00
2017-09-20T04:23:46.430Z,0.00
2017-09-20T04:27:04.817Z,0.00
2017-09-20T04:27:24.010Z,0.00
2017-09-20T04:27:39.098Z,0.00
2017-09-20T04:27:49.405Z,0.00
2017-09-20T04:28:12.607Z,0.00
2017-09-20T04:28:25.994Z,0.00
2017-09-20T04:28:34.730Z,0.00
2017-09-20T04:28:43.241Z,0.00
2017-09-20T04:28:59.595Z,0.00
2017-09-20T04:29:08.646Z,0.00
2017-09-20T04:29:18.182Z,0.00
2017-09-20T04:29:32.637Z,0.00
2017-09-20T04:29:50.599Z,0.00
2017-09-20T04:30:08.763Z,0.00
2017-09-20T04:30:23.446Z,0.00
2017-09-20T04:30:39.642Z,0.00
2017-09-20T04:30:47.441Z,0.00
2017-09-20T04:31:02.945Z,0.00
2017-09-20T04:31:17.681Z,0.00
2017-09-20T04:31:28.741Z,0.00
2017-09-20T04:31:46.730Z,1.00
2017-09-20T04:31:57.423Z,1.00
2017-09-20T04:32:17.497Z,1.00
2017-09-20T04:32:26.754Z,1.00
2017-09-20T04:32:38.154Z,0.00
2017-09-20T04:32:54.933Z,0.00
2017-09-20T04:33:11.250Z,0.00
2017-09-20T04:33:25.033Z,1.00
2017-09-20T04:33:33.260Z,1.00
2017-09-20T04:33:48.363Z,1.00
2017-09-20T04:33:59.682Z,1.00
2017-09-20T04:34:23.646Z,1.00
2017-09-20T04:34:41.418Z,1.00
2017-09-20T04:34:50.612Z,1.00
2017-09-20T04:35:12.409Z,1.00
2017-09-20T04:35:20.918Z,1.00
2017-09-20T04:35:28.465Z,1.00
2017-09-20T04:35:36.617Z,1.00
2017-09-20T04:35:44.757Z,1.00
2017-09-20T04:36:08.343Z,1.00
2017-09-20T04:36:16.649Z,1.00
2017-09-20T04:36:30.519Z,1.00
2017-09-20T04:36:47.813Z,1.00
2017-09-20T04:37:04.680Z,1.00
2017-09-20T04:37:12.933Z,1.00
2017-09-20T04:37:25.974Z,1.00
2017-09-20T04:37:33.801Z,1.00
2017-09-20T04:37:41.541Z,1.00
2017-09-20T04:37:49.874Z,2.00
2017-09-20T04:37:57.821Z,2.00
2017-09-20T04:39:04.945Z,2.00
2017-09-20T04:39:22.118Z,2.00
2017-09-20T04:39:43.169Z,2.00
2017-09-20T04:39:50.694Z,3.00
2017-09-20T04:40:04.549Z,3.00
2017-09-20T04:40:12.814Z,3.00
2017-09-20T04:40:20.919Z,3.00
2017-09-20T04:40:29.057Z,3.00
2017-09-20T04:40:37.214Z,3.00
2017-09-20T04:40:45.342Z,3.00
2017-09-20T04:40:59.205Z,3.00
2017-09-20T04:41:07.442Z,3.00
2017-09-20T04:41:15.778Z,3.00
2017-09-20T04:41:23.718Z,3.00
2017-09-20T04:41:38.253Z,4.00
2017-09-20T04:41:46.581Z,4.00
2017-09-20T04:41:54.733Z,4.00
2017-09-20T04:42:02.667Z,4.00
2017-09-20T04:42:16.533Z,4.00
2017-09-20T04:42:31.730Z,4.00
2017-09-20T04:42:40.389Z,4.00
2017-09-20T04:42:58.033Z,5.00
2017-09-20T04:43:23.629Z,5.00
2017-09-20T04:43:34.229Z,5.00
2017-09-20T04:43:56.938Z,5.00
2017-09-20T04:44:05.890Z,5.00
2017-09-20T04:44:25.154Z,6.00
2017-09-20T04:44:44.708Z,6.00
2017-09-20T04:44:52.721Z,6.00
2017-09-20T04:45:13.789Z,7.00
2017-09-20T04:45:28.961Z,7.00
2017-09-20T04:45:43.918Z,7.00
2017-09-20T04:45:55.298Z,7.00
2017-09-20T04:46:04.227Z,8.00
2017-09-20T04:46:21.540Z,8.00
2017-09-20T04:46:32.993Z,8.00
2017-09-20T04:46:42.362Z,9.00
2017-09-20T04:46:52.878Z,9.00
2017-09-20T04:47:08.901Z,9.00
2017-09-20T04:47:27.254Z,10.00
2017-09-20T04:47:35.901Z,10.00
2017-09-20T04:47:44.018Z,10.00
2017-09-20T04:47:52.329Z,11.00
2017-09-20T04:48:06.950Z,11.00
2017-09-20T04:48:16.053Z,11.00
2017-09-20T04:48:30.964Z,12.00
2017-09-20T04:48:40.224Z,12.00
2017-09-20T04:48:51.882Z,13.00
2017-09-20T04:49:10.460Z,13.00
2017-09-20T04:49:30.211Z,14.00
2017-09-20T04:49:38.430Z,15.00
2017-09-20T04:49:54.516Z,15.00
2017-09-20T04:50:12.020Z,16.00
2017-09-20T04:50:32.810Z,17.00
2017-09-20T04:50:42.120Z,18.00
2017-09-20T04:50:50.066Z,18.00
2017-09-20T04:51:03.745Z,19.00
2017-09-20T04:51:12.191Z,19.00
2017-09-20T04:51:27.830Z,19.00
2017-09-20T04:51:44.406Z,20.00
2017-09-20T04:52:00.572Z,21.00
2017-09-20T04:52:08.593Z,22.00
2017-09-20T04:52:24.277Z,22.00
2017-09-20T04:52:43.334Z,23.00
2017-09-20T04:52:56.593Z,23.00
2017-09-20T04:53:04.837Z,24.00
2017-09-20T04:53:12.965Z,24.00
2017-09-20T04:53:29.861Z,25.00
2017-09-20T04:53:38.266Z,26.00
2017-09-20T04:53:52.550Z,26.00
2017-09-20T04:54:06.572Z,27.00
2017-09-20T04:54:21.088Z,28.00
2017-09-20T04:54:36.935Z,29.00
2017-09-20T04:55:03.100Z,30.00
2017-09-20T04:55:10.798Z,31.00
2017-09-20T04:55:20.374Z,32.00
2017-09-20T04:55:34.641Z,33.00
2017-09-20T04:55:47.232Z,34.00
2017-09-20T04:56:05.081Z,35.00
2017-09-20T04:56:20.338Z,36.00
2017-09-20T04:56:29.180Z,37.00
2017-09-20T04:56:37.316Z,37.00
2017-09-20T04:56:45.444Z,38.00
2017-09-20T04:56:53.792Z,38.00
2017-09-20T04:57:07.453Z,40.00
2017-09-20T04:57:27.054Z,41.00
2017-09-20T04:57:35.217Z,42.00
2017-09-20T04:57:43.153Z,43.00
2017-09-20T04:57:51.289Z,43.00
2017-09-20T04:58:10.182Z,45.00
2017-09-20T04:58:18.208Z,46.00
2017-09-20T04:58:26.333Z,46.00
2017-09-20T04:58:34.477Z,47.00
2017-09-20T04:58:50.745Z,48.00
2017-09-20T04:58:58.185Z,49.00
2017-09-20T04:59:10.245Z,50.00
2017-09-20T04:59:18.683Z,51.00
2017-09-20T04:59:26.825Z,52.00
2017-09-20T04:59:38.702Z,53.00
2017-09-20T04:59:55.257Z,55.00
2017-09-20T05:00:09.626Z,56.00
2017-09-20T05:00:21.690Z,57.00
2017-09-20T05:00:29.230Z,58.00
2017-09-20T05:00:37.573Z,59.00
2017-09-20T05:00:45.494Z,59.00
2017-09-20T05:00:53.630Z,60.00
2017-09-20T05:01:06.689Z,62.00
2017-09-20T05:01:14.156Z,63.00
2017-09-20T05:01:37.084Z,65.00
2017-09-20T05:01:57.473Z,68.00
2017-09-20T05:02:08.247Z,69.00
2017-09-20T05:02:16.249Z,70.00
2017-09-20T05:02:24.501Z,71.00
2017-09-20T05:02:34.140Z,73.00
2017-09-20T05:02:50.457Z,75.00
2017-09-20T05:03:05.193Z,77.00
2017-09-20T05:03:13.229Z,78.00
2017-09-20T05:03:21.372Z,80.00
2017-09-20T05:03:35.441Z,82.00
2017-09-20T05:03:43.469Z,83.00
2017-09-20T05:03:59.345Z,86.00
2017-09-20T05:04:07.168Z,87.00
2017-09-20T05:04:15.313Z,89.00
2017-09-20T05:04:23.645Z,90.00
2017-09-20T05:04:42.429Z,94.00
2017-09-20T05:04:59.601Z,98.00
2017-09-20T05:05:15.262Z,101.00
2017-09-20T05:05:23.483Z,104.00
2017-09-20T05:05:31.413Z,106.00
2017-09-20T05:05:45.305Z,110.00
2017-09-20T05:06:03.260Z,116.00
2017-09-20T05:06:12.281Z,118.00
2017-09-20T05:06:31.000Z,123.00
2017-09-20T05:06:48.591Z,128.00
2017-09-20T05:07:08.017Z,133.00
2017-09-20T05:07:16.721Z,135.00
2017-09-20T05:07:31.555Z,139.00
2017-09-20T05:07:42.745Z,141.00
2017-09-20T05:07:53.063Z,143.00
2017-09-20T05:08:18.141Z,149.00
2017-09-20T05:08:26.661Z,151.00
2017-09-20T05:08:42.353Z,154.00
2017-09-20T05:09:06.805Z,159.00
2017-09-20T05:09:22.084Z,162.00
2017-09-20T05:09:31.097Z,164.00
2017-09-20T05:09:39.438Z,166.00
2017-09-20T05:09:47.389Z,167.00
2017-09-20T05:09:55.317Z,169.00
2017-09-20T05:10:03.653Z,171.00
2017-09-20T05:10:11.785Z,174.00
2017-09-20T05:10:24.983Z,177.00
2017-09-20T05:10:37.361Z,181.00
2017-09-20T05:10:46.452Z,183.00
2017-09-20T05:11:10.034Z,192.00
2017-09-20T05:11:23.894Z,197.00
2017-09-20T05:11:31.734Z,200.00
2017-09-20T05:11:43.613Z,205.00
2017-09-20T05:11:52.240Z,209.00
2017-09-20T05:12:00.378Z,212.00
2017-09-20T05:12:15.469Z,219.00
2017-09-20T05:12:32.245Z,230.00
2017-09-20T05:12:41.527Z,232.00
2017-09-20T05:13:00.445Z,244.00
2017-09-20T05:13:15.229Z,252.00
2017-09-20T05:13:23.666Z,257.00
2017-09-20T05:13:38.496Z,265.00
2017-09-20T05:13:55.106Z,272.00
2017-09-20T05:14:11.162Z,282.00
2017-09-20T05:14:25.119Z,291.00
2017-09-20T05:14:41.438Z,298.00
2017-09-20T05:14:51.113Z,306.00
2017-09-20T05:14:59.913Z,310.00
2017-09-20T05:15:09.070Z,318.00
2017-09-20T05:15:37.297Z,333.00
2017-09-20T05:15:45.625Z,338.00
2017-09-20T05:15:53.565Z,340.00
2017-09-20T05:16:01.874Z,346.00
2017-09-20T05:16:20.613Z,357.00
2017-09-20T05:16:32.034Z,363.00
2017-09-20T05:16:45.298Z,370.00
2017-09-20T05:16:59.085Z,374.00
2017-09-20T05:17:13.033Z,387.00
2017-09-20T05:17:21.297Z,389.00
2017-09-20T05:17:33.137Z,398.00
2017-09-20T05:17:46.689Z,404.00
2017-09-20T05:17:58.885Z,415.00
2017-09-20T05:18:06.485Z,417.00
2017-09-20T05:18:24.853Z,432.00
2017-09-20T05:18:33.601Z,437.00
2017-09-20T05:18:41.540Z,443.00
2017-09-20T05:18:57.108Z,451.00
2017-09-20T05:19:10.486Z,460.00
2017-09-20T05:19:17.794Z,463.00
2017-09-20T05:19:25.747Z,468.00
2017-09-20T05:19:45.045Z,482.00
2017-09-20T05:19:58.893Z,488.00
2017-09-20T05:20:15.996Z,495.00
2017-09-20T05:20:33.926Z,505.00
2017-09-20T05:20:50.806Z,515.00
2017-09-20T05:21:07.190Z,524.00
2017-09-20T05:21:26.846Z,535.00
2017-09-20T05:21:39.115Z,539.00
2017-09-20T05:21:53.470Z,547.00
2017-09-20T05:22:02.111Z,552.00
2017-09-20T05:22:10.237Z,556.00
2017-09-20T05:22:18.577Z,561.00
2017-09-20T05:22:32.431Z,568.00
2017-09-20T05:22:40.495Z,570.00
2017-09-20T05:22:58.758Z,580.00
2017-09-20T05:23:27.622Z,594.00
2017-09-20T05:23:35.772Z,602.00
2017-09-20T05:23:50.726Z,608.00
2017-09-20T05:23:59.647Z,613.00
2017-09-20T05:24:15.340Z,620.00
2017-09-20T05:24:31.855Z,629.00
2017-09-20T05:24:50.434Z,636.00
2017-09-20T05:24:59.532Z,638.00
2017-09-20T05:25:16.964Z,650.00
2017-09-20T05:25:30.813Z,658.00
2017-09-20T05:25:45.788Z,664.00
2017-09-20T05:25:53.930Z,671.00
2017-09-20T05:26:12.119Z,678.00
2017-09-20T05:26:25.898Z,686.00
2017-09-20T05:26:40.960Z,690.00
2017-09-20T05:26:58.601Z,703.00
2017-09-20T05:27:29.346Z,718.00
2017-09-20T05:27:56.139Z,728.00
2017-09-20T05:28:13.192Z,738.00
2017-09-20T05:28:25.357Z,744.00
2017-09-20T05:28:39.729Z,753.00
2017-09-20T05:28:47.765Z,757.00
2017-09-20T05:28:55.898Z,759.00
2017-09-20T05:29:04.024Z,763.00
2017-09-20T05:29:12.373Z,764.00
2017-09-20T05:29:20.312Z,769.00
2017-09-20T05:29:28.640Z,770.00
2017-09-20T05:29:36.585Z,775.00
2017-09-20T05:29:52.588Z,777.00
2017-09-20T05:30:03.942Z,780.00
2017-09-20T05:30:20.364Z,786.00
2017-09-20T05:30:39.250Z,789.00
2017-09-20T05:30:56.778Z,790.00
2017-09-20T05:31:04.750Z,793.00
2017-09-20T05:31:21.606Z,796.00
2017-09-20T05:31:35.643Z,799.00
2017-09-20T05:31:49.923Z,797.00
2017-09-20T05:31:57.971Z,799.00
2017-09-20T05:32:15.025Z,803.00
2017-09-20T05:32:26.638Z,801.00
2017-09-20T05:32:34.997Z,801.00
2017-09-20T05:32:49.469Z,800.00
2017-09-20T05:32:56.914Z,797.00
2017-09-20T05:33:05.033Z,800.00
2017-09-20T05:33:12.989Z,798.00
2017-09-20T05:33:30.053Z,799.00
2017-09-20T05:33:38.281Z,800.00
2017-09-20T05:33:52.758Z,799.00
2017-09-20T05:34:00.594Z,795.00
2017-09-20T05:34:08.534Z,795.00
2017-09-20T05:34:21.574Z,795.00
2017-09-20T05:34:29.026Z,795.00
2017-09-20T05:34:38.765Z,793.00
2017-09-20T05:34:47.281Z,793.00
2017-09-20T05:35:00.974Z,793.00
2017-09-20T05:35:18.929Z,793.00
2017-09-20T05:35:33.808Z,795.00
2017-09-20T05:35:48.477Z,797.00
2017-09-20T05:35:55.918Z,800.00
2017-09-20T05:36:04.033Z,801.00
2017-09-20T05:36:12.186Z,805.00
2017-09-20T05:36:20.313Z,807.00
2017-09-20T05:36:28.274Z,813.00
2017-09-20T05:36:42.316Z,821.00
2017-09-20T05:36:59.113Z,838.00
2017-09-20T05:37:07.518Z,843.00
2017-09-20T05:37:22.254Z,858.00
2017-09-20T05:37:33.636Z,871.00
2017-09-20T05:37:41.156Z,875.00
2017-09-20T05:37:57.142Z,891.00
2017-09-20T05:38:08.604Z,906.00
2017-09-20T05:38:33.349Z,935.00
2017-09-20T05:38:48.110Z,956.00
2017-09-20T05:38:56.741Z,970.00
2017-09-20T05:39:08.633Z,986.00
2017-09-20T05:39:17.245Z,1003.00
2017-09-20T05:39:25.569Z,1014.00
2017-09-20T05:39:40.457Z,1042.00
2017-09-20T05:39:49.090Z,1057.00
2017-09-20T05:40:00.965Z,1077.00
2017-09-20T05:40:09.773Z,1090.00
2017-09-20T05:40:22.485Z,1117.00
2017-09-20T05:40:35.838Z,1137.00
2017-09-20T05:40:51.006Z,1165.00
2017-09-20T05:40:59.812Z,1178.00
2017-09-20T05:41:16.704Z,1204.00
2017-09-20T05:41:30.910Z,1224.00
2017-09-20T05:41:46.037Z,1247.00
2017-09-20T05:41:54.645Z,1259.00
2017-09-20T05:42:13.790Z,1278.00
2017-09-20T05:42:27.100Z,1296.00
2017-09-20T05:42:41.074Z,1309.00
2017-09-20T05:42:56.544Z,1328.00
2017-09-20T05:43:09.294Z,1343.00
2017-09-20T05:43:29.538Z,1367.00
2017-09-20T05:43:42.342Z,1387.00
2017-09-20T05:43:58.882Z,1410.00
2017-09-20T05:44:13.865Z,1428.00
2017-09-20T05:44:21.101Z,1441.00
2017-09-20T05:44:36.426Z,1464.00
2017-09-20T05:44:49.737Z,1489.00
2017-09-20T05:44:57.541Z,1501.00
2017-09-20T05:45:05.309Z,1516.00
2017-09-20T05:45:22.880Z,1543.00
2017-09-20T05:45:58.857Z,1606.00
2017-09-20T05:46:07.173Z,1617.00
2017-09-20T05:46:15.314Z,1626.00
2017-09-20T05:46:23.441Z,1638.00
2017-09-20T05:46:31.397Z,1649.00
2017-09-20T05:46:39.526Z,1662.00
2017-09-20T05:46:53.785Z,1683.00
2017-09-20T05:47:01.635Z,1697.00
2017-09-20T05:47:15.491Z,1716.00
2017-09-20T05:47:23.733Z,1729.00
2017-09-20T05:47:37.814Z,1752.00
2017-09-20T05:47:46.017Z,1766.00
2017-09-20T05:47:54.154Z,1777.00
2017-09-20T05:48:09.042Z,1802.00
2017-09-20T05:48:17.698Z,1814.00
2017-09-20T05:48:26.013Z,1829.00
2017-09-20T05:48:33.961Z,1844.00
2017-09-20T05:48:42.293Z,1857.00
2017-09-20T05:48:58.161Z,1883.00
2017-09-20T05:49:05.794Z,1894.00
2017-09-20T05:49:21.858Z,1920.00
2017-09-20T05:49:29.509Z,1931.00
2017-09-20T05:49:38.011Z,1942.00
2017-09-20T05:49:45.761Z,1956.00
2017-09-20T05:49:57.641Z,1969.00
2017-09-20T05:50:12.762Z,1990.00
2017-09-20T05:50:24.181Z,2006.00
2017-09-20T05:50:32.610Z,2015.00
2017-09-20T05:50:40.938Z,2026.00
2017-09-20T05:50:48.876Z,2040.00
2017-09-20T05:50:57.233Z,2046.00
2017-09-20T05:51:08.404Z,2058.00
2017-09-20T05:51:16.122Z,2068.00
2017-09-20T05:51:32.001Z,2085.00
2017-09-20T05:51:39.621Z,2089.00
2017-09-20T05:51:54.897Z,2097.00
2017-09-20T05:52:03.331Z,2102.00
2017-09-20T05:52:11.656Z,2106.00
2017-09-20T05:52:19.593Z,2111.00
2017-09-20T05:52:27.969Z,2117.00
2017-09-20T05:52:47.321Z,2132.00
2017-09-20T05:53:02.139Z,2143.00
2017-09-20T05:53:26.747Z,2160.00
2017-09-20T05:53:39.422Z,2174.00
2017-09-20T05:53:52.597Z,2186.00
2017-09-20T05:54:06.757Z,2202.00
2017-09-20T05:54:14.794Z,2210.00
2017-09-20T05:54:28.872Z,2219.00
2017-09-20T05:54:37.293Z,2228.00
2017-09-20T05:54:45.026Z,2236.00
2017-09-20T05:54:53.573Z,2244.00
2017-09-20T05:55:01.513Z,2254.00
2017-09-20T05:55:19.409Z,2272.00
2017-09-20T05:55:29.067Z,2281.00
2017-09-20T05:55:38.346Z,2294.00
2017-09-20T05:55:53.386Z,2310.00
2017-09-20T05:56:02.293Z,2319.00
2017-09-20T05:56:11.642Z,2327.00
2017-09-20T05:56:32.163Z,2343.00
2017-09-20T05:56:39.982Z,2348.00
2017-09-20T05:56:49.806Z,2351.00
2017-09-20T05:57:08.020Z,2356.00
2017-09-20T05:57:31.979Z,2349.00
2017-09-20T05:57:50.632Z,2330.00
2017-09-20T05:57:59.144Z,2321.00
2017-09-20T05:58:07.246Z,2311.00
2017-09-20T05:58:15.517Z,2299.00
2017-09-20T05:58:25.020Z,2287.00
2017-09-20T05:58:41.142Z,2257.00
2017-09-20T05:58:48.594Z,2245.00
2017-09-20T05:58:57.109Z,2229.00
2017-09-20T05:59:05.063Z,2213.00
2017-09-20T05:59:13.193Z,2199.00
2017-09-20T05:59:21.330Z,2186.00
2017-09-20T05:59:29.281Z,2173.00
2017-09-20T05:59:37.793Z,2158.00
2017-09-20T05:59:45.560Z,2146.00
2017-09-20T05:59:58.594Z,2121.00
2017-09-20T06:00:06.250Z,2110.00
2017-09-20T06:00:19.942Z,2086.00
2017-09-20T06:00:28.166Z,2078.00
2017-09-20T06:00:36.493Z,2068.00
2017-09-20T06:00:52.182Z,2051.00
2017-09-20T06:00:59.993Z,2046.00
2017-09-20T06:01:08.142Z,2035.00
2017-09-20T06:01:16.290Z,2034.00
2017-09-20T06:01:30.166Z,2025.00
2017-09-20T06:01:46.281Z,2024.00
2017-09-20T06:01:55.138Z,2032.00
2017-09-20T06:02:05.464Z,2038.00
2017-09-20T06:02:16.822Z,2045.00
2017-09-20T06:02:30.221Z,2055.00
2017-09-20T06:02:38.157Z,2061.00
2017-09-20T06:02:46.282Z,2061.00
2017-09-20T06:03:17.249Z,2067.00
2017-09-20T06:03:24.596Z,2069.00
2017-09-20T06:03:38.266Z,2073.00
2017-09-20T06:03:55.622Z,2085.00
2017-09-20T06:04:03.669Z,2086.00
2017-09-20T06:04:11.793Z,2093.00
2017-09-20T06:04:20.121Z,2103.00
2017-09-20T06:04:28.250Z,2111.00
2017-09-20T06:04:46.701Z,2133.00
2017-09-20T06:04:55.259Z,2146.00
2017-09-20T06:05:03.434Z,2155.00
2017-09-20T06:05:21.145Z,2175.00
2017-09-20T06:05:31.978Z,2189.00
2017-09-20T06:05:40.020Z,2197.00
2017-09-20T06:05:50.282Z,2207.00
2017-09-20T06:06:08.478Z,2228.00
2017-09-20T06:06:22.149Z,2244.00
2017-09-20T06:06:37.303Z,2262.00
2017-09-20T06:06:48.383Z,2270.00
2017-09-20T06:07:03.306Z,2292.00
2017-09-20T06:07:23.287Z,2313.00
2017-09-20T06:07:33.431Z,2324.00
2017-09-20T06:07:51.574Z,2344.00
2017-09-20T06:08:00.117Z,2354.00
2017-09-20T06:08:08.236Z,2363.00
2017-09-20T06:08:22.311Z,2382.00
2017-09-20T06:08:39.086Z,2404.00
2017-09-20T06:08:47.517Z,2421.00
2017-09-20T06:08:55.667Z,2431.00
2017-09-20T06:09:03.976Z,2448.00
2017-09-20T06:09:11.964Z,2463.00
2017-09-20T06:09:20.233Z,2475.00
2017-09-20T06:09:28.413Z,2492.00
2017-09-20T06:09:36.342Z,2508.00
2017-09-20T06:09:55.454Z,2538.00
2017-09-20T06:10:13.091Z,2568.00
2017-09-20T06:10:27.765Z,2592.00
2017-09-20T06:10:50.321Z,2626.00
2017-09-20T06:10:57.957Z,2639.00
2017-09-20T06:11:06.286Z,2647.00
2017-09-20T06:11:14.236Z,2656.00
2017-09-20T06:11:22.553Z,2665.00
2017-09-20T06:11:30.493Z,2669.00
2017-09-20T06:11:38.650Z,2677.00
2017-09-20T06:11:52.518Z,2689.00
2017-09-20T06:12:00.745Z,2698.00
2017-09-20T06:12:08.885Z,2699.00
2017-09-20T06:12:17.205Z,2707.00
2017-09-20T06:12:25.158Z,2704.00
2017-09-20T06:12:43.416Z,2703.00
2017-09-20T06:12:52.131Z,2705.00
2017-09-20T06:13:00.285Z,2702.00
2017-09-20T06:13:14.265Z,2704.00
2017-09-20T06:13:29.050Z,2696.00
2017-09-20T06:13:36.455Z,2693.00
2017-09-20T06:13:52.654Z,2680.00
2017-09-20T06:13:59.982Z,2676.00
2017-09-20T06:14:11.346Z,2665.00
2017-09-20T06:14:24.635Z,2656.00
2017-09-20T06:14:33.033Z,2650.00
2017-09-20T06:14:41.041Z,2644.00
2017-09-20T06:15:00.058Z,2625.00
2017-09-20T06:15:08.073Z,2619.00
2017-09-20T06:15:16.216Z,2614.00
2017-09-20T06:15:32.068Z,2607.00
2017-09-20T06:15:39.940Z,2604.00
2017-09-20T06:15:48.054Z,2605.00
2017-09-20T06:16:00.124Z,2604.00
2017-09-20T06:16:08.358Z,2603.00
2017-09-20T06:16:21.238Z,2604.00
2017-09-20T06:16:32.301Z,2606.00
2017-09-20T06:16:58.061Z,2607.00
2017-09-20T06:17:06.402Z,2610.00
2017-09-20T06:17:21.522Z,2611.00
2017-09-20T06:17:37.078Z,2609.00
2017-09-20T06:17:45.858Z,2612.00
2017-09-20T06:18:02.754Z,2609.00
2017-09-20T06:18:20.946Z,2608.00
2017-09-20T06:18:45.670Z,2612.00
2017-09-20T06:18:53.307Z,2614.00
2017-09-20T06:19:08.386Z,2618.00
2017-09-20T06:19:17.033Z,2621.00
2017-09-20T06:19:25.333Z,2627.00
2017-09-20T06:19:38.017Z,2638.00
2017-09-20T06:19:51.389Z,2646.00
2017-09-20T06:19:59.809Z,2664.00
2017-09-20T06:20:07.946Z,2673.00
2017-09-20T06:20:23.019Z,2697.00
2017-09-20T06:20:38.402Z,2723.00
2017-09-20T06:20:47.013Z,2739.00
2017-09-20T06:20:59.910Z,2766.00
2017-09-20T06:21:13.258Z,2794.00
2017-09-20T06:21:21.675Z,2811.00
2017-09-20T06:21:29.628Z,2826.00
2017-09-20T06:21:43.513Z,2852.00
2017-09-20T06:21:58.689Z,2884.00
2017-09-20T06:22:07.685Z,2900.00
2017-09-20T06:22:24.382Z,2928.00
2017-09-20T06:22:38.345Z,2949.00
2017-09-20T06:22:56.310Z,2972.00
2017-09-20T06:23:03.742Z,2976.00
2017-09-20T06:23:11.898Z,2986.00
2017-09-20T06:23:20.389Z,2994.00
2017-09-20T06:23:28.143Z,3001.00
2017-09-20T06:23:36.491Z,3006.00
2017-09-20T06:23:44.421Z,3008.00
2017-09-20T06:23:58.493Z,3013.00
2017-09-20T06:24:06.719Z,3012.00
2017-09-20T06:24:20.395Z,3015.00
2017-09-20T06:24:28.797Z,3013.00
2017-09-20T06:24:45.697Z,3010.00
2017-09-20T06:24:54.120Z,3008.00
2017-09-20T06:25:09.281Z,2995.00
2017-09-20T06:25:17.636Z,2988.00
2017-09-20T06:25:25.972Z,2980.00
2017-09-20T06:25:33.909Z,2971.00
2017-09-20T06:25:42.045Z,2960.00
2017-09-20T06:25:54.617Z,2942.00
2017-09-20T06:26:06.973Z,2919.00
2017-09-20T06:26:15.106Z,2911.00
2017-09-20T06:26:23.447Z,2896.00
2017-09-20T06:26:38.121Z,2873.00
2017-09-20T06:26:46.757Z,2860.00
2017-09-20T06:27:05.099Z,2835.00
2017-09-20T06:27:14.381Z,2827.00
2017-09-20T06:27:23.942Z,2814.00
2017-09-20T06:27:39.751Z,2799.00
2017-09-20T06:27:48.842Z,2790.00
2017-09-20T06:28:03.569Z,2782.00
2017-09-20T06:28:11.009Z,2781.00
2017-09-20T06:28:18.942Z,2782.00
2017-09-20T06:28:27.069Z,2787.00
2017-09-20T06:28:35.217Z,2788.00
2017-09-20T06:28:46.591Z,2795.00
2017-09-20T06:28:54.125Z,2799.00
2017-09-20T06:29:08.998Z,2808.00
2017-09-20T06:29:16.221Z,2814.00
2017-09-20T06:29:34.315Z,2827.00
2017-09-20T06:29:43.255Z,2833.00
2017-09-20T06:29:57.797Z,2841.00
2017-09-20T06:30:05.221Z,2843.00
2017-09-20T06:30:13.373Z,2845.00
2017-09-20T06:30:21.505Z,2848.00
2017-09-20T06:30:29.846Z,2846.00
2017-09-20T06:30:43.522Z,2850.00
2017-09-20T06:30:57.675Z,2858.00
2017-09-20T06:31:10.450Z,2860.00
2017-09-20T06:31:18.086Z,2857.00
2017-09-20T06:31:33.377Z,2854.00
2017-09-20T06:31:56.141Z,2842.00
2017-09-20T06:32:05.651Z,2837.00
2017-09-20T06:32:21.919Z,2825.00
2017-09-20T06:32:33.077Z,2811.00
2017-09-20T06:32:41.686Z,2800.00
2017-09-20T06:32:49.823Z,2787.00
2017-09-20T06:32:59.561Z,2777.00
2017-09-20T06:33:13.945Z,2754.00
2017-09-20T06:33:25.047Z,2741.00
2017-09-20T06:33:40.358Z,2717.00
2017-09-20T06:33:54.493Z,2696.00
2017-09-20T06:34:02.537Z,2681.00
2017-09-20T06:34:17.622Z,2656.00
2017-09-20T06:34:26.422Z,2637.00
2017-09-20T06:34:42.336Z,2611.00
2017-09-20T06:34:57.334Z,2579.00
2017-09-20T06:35:05.548Z,2563.00
2017-09-20T06:35:30.597Z,2507.00
2017-09-20T06:35:38.814Z,2493.00
2017-09-20T06:35:46.941Z,2477.00
2017-09-20T06:35:55.455Z,2463.00
2017-09-20T06:36:09.150Z,2438.00
2017-09-20T06:36:22.618Z,2414.00
2017-09-20T06:36:31.161Z,2400.00
2017-09-20T06:36:45.021Z,2379.00
2017-09-20T06:36:53.261Z,2364.00
2017-09-20T06:37:01.401Z,2355.00
2017-09-20T06:37:16.473Z,2332.00
2017-09-20T06:37:25.289Z,2321.00
2017-09-20T06:37:36.482Z,2310.00
2017-09-20T06:37:51.742Z,2298.00
2017-09-20T06:38:07.506Z,2289.00
2017-09-20T06:38:15.343Z,2285.00
2017-09-20T06:38:23.284Z,2280.00
2017-09-20T06:38:31.411Z,2283.00
2017-09-20T06:38:47.669Z,2292.00
2017-09-20T06:38:55.501Z,2300.00
2017-09-20T06:39:11.215Z,2312.00
2017-09-20T06:39:19.034Z,2323.00
2017-09-20T06:39:26.973Z,2337.00
2017-09-20T06:39:38.833Z,2362.00
2017-09-20T06:39:47.653Z,2377.00
2017-09-20T06:40:01.527Z,2408.00
2017-09-20T06:40:14.792Z,2441.00
2017-09-20T06:40:27.157Z,2476.00
2017-09-20T06:40:34.284Z,2495.00
2017-09-20T06:40:42.449Z,2516.00
2017-09-20T06:41:01.485Z,2576.00
2017-09-20T06:41:09.774Z,2606.00
2017-09-20T06:41:17.665Z,2641.00
2017-09-20T06:41:34.506Z,2712.00
2017-09-20T06:41:51.862Z,2800.00
2017-09-20T06:42:13.386Z,2914.00
2017-09-20T06:42:22.081Z,2964.00
2017-09-20T06:42:30.237Z,3005.00
2017-09-20T06:42:38.173Z,3052.00
2017-09-20T06:42:48.705Z,3112.00
2017-09-20T06:42:59.795Z,3181.00
2017-09-20T06:43:19.333Z,3286.00
2017-09-20T06:43:43.322Z,3460.00
2017-09-20T06:43:50.954Z,3508.00
2017-09-20T06:43:58.890Z,3562.00
2017-09-20T06:44:16.149Z,3673.00
2017-09-20T06:44:24.389Z,3727.00
2017-09-20T06:44:32.331Z,3785.00
2017-09-20T06:44:44.713Z,3867.00
2017-09-20T06:45:01.069Z,3972.00
2017-09-20T06:45:08.393Z,4017.00
2017-09-20T06:45:16.545Z,4062.00
2017-09-20T06:45:25.021Z,4110.00
2017-09-20T06:45:32.997Z,4155.00
2017-09-20T06:45:40.953Z,4196.00
2017-09-20T06:45:49.279Z,4240.00
2017-09-20T06:45:57.225Z,4278.00
2017-09-20T06:46:05.373Z,4315.00
2017-09-20T06:46:13.513Z,4349.00
2017-09-20T06:46:27.552Z,4397.00
2017-09-20T06:46:42.341Z,4439.00
2017-09-20T06:46:49.745Z,4459.00
2017-09-20T06:47:03.135Z,4483.00
2017-09-20T06:47:11.622Z,4495.00
2017-09-20T06:47:29.286Z,4486.00
2017-09-20T06:47:44.850Z,4470.00
2017-09-20T06:48:01.041Z,4443.00
2017-09-20T06:48:08.667Z,4428.00
2017-09-20T06:48:16.808Z,4410.00
2017-09-20T06:48:33.681Z,4373.00
2017-09-20T06:48:42.289Z,4362.00
2017-09-20T06:49:06.482Z,4342.00
2017-09-20T06:49:20.793Z,4346.00
2017-09-20T06:49:28.313Z,4358.00
2017-09-20T06:49:46.386Z,4397.00
2017-09-20T06:50:10.254Z,4481.00